createdAt,value
2022-12-19T00:03:49.771Z,94
2022-12-19T00:08:47.475Z,94
2022-12-19T00:13:46.961Z,94
2022-12-19T00:18:46.580Z,94
2022-12-19T00:23:46.351Z,94
2022-12-19T00:28:46.059Z,94
2022-12-19T00:33:44.380Z,94
2022-12-19T00:38:42.449Z,94
2022-12-19T00:43:42.131Z,94
2022-12-19T00:48:41.989Z,94
2022-12-19T00:53:41.366Z,94
2022-12-19T00:58:47.653Z,94
2022-12-19T01:04:26.352Z,94
2022-12-19T01:08:40.326Z,94
2022-12-19T01:13:40.040Z,94
2022-12-19T01:18:37.189Z,94
2022-12-19T01:23:36.622Z,94
2022-12-19T01:28:36.579Z,94
2022-12-19T01:33:35.115Z,94
2022-12-19T01:38:34.244Z,94
2022-12-19T01:43:33.828Z,94
2022-12-19T01:48:33.971Z,94
2022-12-19T01:53:33.952Z,94
2022-12-19T01:58:23.169Z,94
2022-12-19T02:03:22.891Z,94
2022-12-19T02:08:23.243Z,94
2022-12-19T02:13:22.976Z,94
2022-12-19T02:18:22.357Z,94
2022-12-19T02:23:19.119Z,94
2022-12-19T02:28:18.476Z,94
2022-12-19T02:33:18.086Z,94
2022-12-19T02:38:18.011Z,94
2022-12-19T02:43:18.486Z,94
2022-12-19T02:48:20.046Z,94
2022-12-19T02:53:24.549Z,94
2022-12-19T02:58:16.449Z,94
2022-12-19T02:59:36.903Z,94
2022-12-19T03:04:36.379Z,94
2022-12-19T03:09:35.782Z,94
2022-12-19T03:14:35.938Z,94
2022-12-19T03:19:33.334Z,94
2022-12-19T03:24:32.943Z,94
2022-12-19T03:29:32.200Z,94
2022-12-19T03:34:31.954Z,94
2022-12-19T03:39:31.738Z,94
2022-12-19T03:44:28.670Z,94
2022-12-19T03:49:28.160Z,94
2022-12-19T03:54:27.584Z,94
2022-12-19T03:58:47.676Z,94
2022-12-19T04:00:16.902Z,94
2022-12-19T04:05:07.501Z,94
2022-12-19T04:10:07.702Z,94
2022-12-19T04:15:08.207Z,94
2022-12-19T04:20:05.024Z,94
2022-12-19T04:25:05.575Z,94
2022-12-19T04:30:05.005Z,94
2022-12-19T04:35:05.214Z,94
2022-12-19T04:40:02.295Z,94
2022-12-19T04:45:01.881Z,94
2022-12-19T04:50:01.156Z,94
2022-12-19T04:55:00.979Z,94
2022-12-19T04:59:21.256Z,94
2022-12-19T05:04:20.208Z,94
2022-12-19T05:09:19.423Z,94
2022-12-19T05:14:19.286Z,94
2022-12-19T05:19:20.008Z,94
2022-12-19T05:24:17.076Z,94
2022-12-19T05:29:16.899Z,94
2022-12-19T05:34:16.705Z,94
2022-12-19T05:39:16.941Z,94
2022-12-19T05:44:25.742Z,94
2022-12-19T05:49:25.684Z,94
2022-12-19T05:54:25.284Z,93
2022-12-19T05:59:07.128Z,93
2022-12-19T06:04:05.499Z,94
2022-12-19T06:09:04.694Z,94
2022-12-19T06:14:05.003Z,94
2022-12-19T06:19:04.478Z,94
2022-12-19T06:24:01.569Z,94
2022-12-19T06:29:00.891Z,94
2022-12-19T06:34:00.816Z,94
2022-12-19T06:39:00.272Z,94
2022-12-19T06:43:59.450Z,94
2022-12-19T06:48:58.316Z,94
2022-12-19T06:53:57.980Z,94
2022-12-19T06:58:45.604Z,94
2022-12-19T07:00:06.367Z,94
2022-12-19T07:05:05.255Z,94
2022-12-19T07:10:05.473Z,94
2022-12-19T07:15:04.552Z,94
2022-12-19T07:20:04.774Z,93
2022-12-19T07:25:02.391Z,93
2022-12-19T07:30:02.135Z,93
2022-12-19T07:35:01.269Z,93
2022-12-19T07:40:01.466Z,93
2022-12-19T07:44:59.962Z,94
2022-12-19T07:49:59.505Z,94
2022-12-19T07:54:58.942Z,94
2022-12-19T07:59:19.221Z,93
2022-12-19T08:04:17.203Z,93
2022-12-19T08:09:16.403Z,92
2022-12-19T08:14:26.461Z,92
2022-12-19T08:19:28.293Z,92
2022-12-19T08:24:24.140Z,92
2022-12-19T08:29:23.651Z,92
2022-12-19T08:34:23.524Z,92
2022-12-19T08:39:21.986Z,91
2022-12-19T08:44:21.957Z,91
2022-12-19T08:49:22.041Z,91
2022-12-19T08:54:22.283Z,90
2022-12-19T08:59:06.128Z,90
2022-12-19T09:06:08.082Z,89
2022-12-19T09:09:05.067Z,89
2022-12-19T09:14:05.772Z,89
2022-12-19T09:19:03.238Z,89
2022-12-19T09:24:08.381Z,88
2022-12-19T09:29:05.461Z,87
2022-12-19T09:34:03.607Z,87
2022-12-19T09:39:01.428Z,86
2022-12-19T09:44:02.917Z,86
2022-12-19T09:48:59.942Z,85
2022-12-19T09:53:59.787Z,85
2022-12-19T09:58:47.873Z,85
2022-12-19T10:00:08.129Z,85
2022-12-19T10:05:42.908Z,84
2022-12-19T10:12:48.343Z,84
2022-12-19T10:15:07.195Z,83
2022-12-19T10:20:04.215Z,83
2022-12-19T10:25:10.517Z,82
2022-12-19T10:30:03.569Z,82
2022-12-19T10:35:03.599Z,82
2022-12-19T10:40:00.504Z,82
2022-12-19T10:44:59.834Z,82
2022-12-19T10:50:09.424Z,82
2022-12-19T10:55:00.746Z,82
2022-12-19T10:59:45.947Z,82
2022-12-19T11:04:46.247Z,82
2022-12-19T11:10:21.453Z,82
2022-12-19T11:32:38.627Z,82
2022-12-19T11:32:52.745Z,82
2022-12-19T11:34:41.585Z,82
2022-12-19T11:39:40.259Z,82
2022-12-19T11:44:39.845Z,82
2022-12-19T11:49:40.106Z,82
2022-12-19T11:54:39.828Z,82
2022-12-19T11:59:01.231Z,81
2022-12-19T12:04:03.265Z,80
2022-12-19T12:18:56.686Z,79
2022-12-19T12:38:33.649Z,79
2022-12-19T12:43:56.964Z,80
2022-12-19T12:48:56.652Z,80
2022-12-19T12:53:56.393Z,80
2022-12-19T12:58:43.419Z,81
2022-12-19T13:03:40.905Z,80
2022-12-19T13:08:40.073Z,81
2022-12-19T13:13:39.600Z,81
2022-12-19T13:18:39.493Z,81
2022-12-19T13:23:38.663Z,82
2022-12-19T13:28:37.537Z,82
2022-12-19T13:33:37.165Z,82
2022-12-19T13:40:10.702Z,82
2022-12-19T13:43:36.326Z,82
2022-12-19T13:48:34.387Z,83
2022-12-19T13:53:33.655Z,83
2022-12-19T13:58:21.053Z,83
2022-12-19T14:03:21.232Z,83
2022-12-19T14:08:21.222Z,83
2022-12-19T14:14:05.080Z,83
2022-12-19T14:18:46.174Z,84
2022-12-19T14:23:43.160Z,84
2022-12-19T14:28:30.648Z,85
2022-12-19T14:34:11.400Z,85
2022-12-19T14:39:29.094Z,85
2022-12-19T14:53:52.848Z,85
2022-12-19T14:57:05.076Z,86
2022-12-19T14:58:57.082Z,87
2022-12-19T14:59:47.028Z,87
2022-12-19T15:04:54.790Z,87
2022-12-19T15:11:16.277Z,88
2022-12-19T15:15:02.926Z,88
2022-12-19T15:19:43.524Z,88
2022-12-19T15:24:43.641Z,89
2022-12-19T15:29:40.538Z,89
2022-12-19T15:34:51.549Z,89
2022-12-19T15:39:39.453Z,90
2022-12-19T15:44:39.409Z,90
2022-12-19T15:49:37.926Z,91
2022-12-19T15:54:51.613Z,91
2022-12-19T15:59:24.840Z,91
2022-12-19T16:04:26.268Z,92
2022-12-19T16:09:23.246Z,92
2022-12-19T16:14:23.136Z,93
2022-12-19T16:19:22.680Z,93
2022-12-19T16:24:22.266Z,93
2022-12-19T16:29:22.580Z,94
2022-12-19T16:34:23.230Z,94
2022-12-19T16:39:20.729Z,94
2022-12-19T16:44:21.118Z,94
2022-12-19T16:49:09.504Z,94
2022-12-19T16:54:09.588Z,95
2022-12-19T16:58:53.454Z,95
2022-12-19T17:03:53.196Z,95
2022-12-19T17:08:52.995Z,95
2022-12-19T17:13:52.932Z,95
2022-12-19T17:18:51.369Z,95
2022-12-19T17:23:51.636Z,95
2022-12-19T17:28:50.676Z,96
2022-12-19T17:33:50.857Z,97
2022-12-19T17:38:49.490Z,97
2022-12-19T17:43:48.803Z,96
2022-12-19T17:48:48.077Z,97
2022-12-19T17:53:48.223Z,96
2022-12-19T17:58:47.911Z,96
2022-12-19T18:03:47.354Z,96
2022-12-19T18:08:46.698Z,96
2022-12-19T18:13:46.601Z,96
2022-12-19T18:18:45.702Z,96
2022-12-19T18:23:44.480Z,97
2022-12-19T18:28:43.734Z,97
2022-12-19T18:33:43.616Z,97
2022-12-19T18:38:42.708Z,97
2022-12-19T18:43:40.503Z,97
2022-12-19T18:48:39.682Z,97
2022-12-19T18:53:40.015Z,97
2022-12-19T18:58:38.971Z,97
2022-12-19T19:00:00.394Z,97
2022-12-19T19:04:59.768Z,97
2022-12-19T19:09:59.124Z,97
2022-12-19T19:14:59.503Z,98
2022-12-19T19:19:59.340Z,98
2022-12-19T19:24:56.351Z,97
2022-12-19T19:29:56.043Z,98
2022-12-19T19:34:55.926Z,98
2022-12-19T19:39:54.591Z,98
2022-12-19T19:44:53.606Z,98
2022-12-19T19:49:52.825Z,98
2022-12-19T19:54:52.869Z,98
2022-12-19T19:58:55.093Z,98
2022-12-19T20:03:52.649Z,98
2022-12-19T20:08:51.615Z,98
2022-12-19T20:13:51.888Z,98
2022-12-19T20:18:52.424Z,98
2022-12-19T20:23:48.955Z,98
2022-12-19T20:28:50.571Z,98
2022-12-19T20:33:48.067Z,98
2022-12-19T20:38:48.083Z,98
2022-12-19T20:43:46.880Z,99
2022-12-19T20:48:45.946Z,99
2022-12-19T20:53:45.778Z,98
2022-12-19T20:58:45.554Z,99
2022-12-19T21:03:45.560Z,99
2022-12-19T21:08:43.386Z,98
2022-12-19T21:13:41.750Z,98
2022-12-19T21:18:41.632Z,98
2022-12-19T21:23:41.324Z,99
2022-12-19T21:28:41.755Z,99
2022-12-19T21:33:39.495Z,99
2022-12-19T21:38:39.126Z,99
2022-12-19T21:43:38.862Z,99
2022-12-19T21:48:39.046Z,99
2022-12-19T21:53:36.523Z,99
2022-12-19T21:58:36.591Z,99
2022-12-19T21:59:57.547Z,99
2022-12-19T22:04:57.766Z,99
2022-12-19T22:09:54.619Z,99
2022-12-19T22:14:54.120Z,99
2022-12-19T22:19:53.716Z,99
2022-12-19T22:24:52.829Z,99
2022-12-19T22:29:51.769Z,99
2022-12-19T22:34:51.100Z,99
2022-12-19T22:39:50.179Z,99
2022-12-19T22:44:50.067Z,99
2022-12-19T22:49:49.815Z,99
2022-12-19T22:54:47.464Z,99
2022-12-19T22:58:51.978Z,99
2022-12-19T23:03:52.068Z,99
2022-12-19T23:08:52.236Z,99
2022-12-19T23:13:50.845Z,99
2022-12-19T23:18:51.064Z,99
2022-12-19T23:23:50.646Z,99
2022-12-19T23:28:49.734Z,98
2022-12-19T23:33:48.752Z,99
2022-12-19T23:38:48.531Z,99
2022-12-19T23:43:48.108Z,99
2022-12-19T23:48:47.642Z,99
2022-12-19T23:53:45.714Z,99
2022-12-19T23:58:44.660Z,99
